sensor_id;sensor_type;location;lat;lon;timestamp;temperature;humidity
17621;DHT22;8929;51.008;6.804;2022-09-09T00:00:25;18.70;99.90
17621;DHT22;8929;51.008;6.804;2022-09-09T00:05:39;18.70;99.90
17621;DHT22;8929;51.008;6.804;2022-09-09T00:08:12;18.70;99.90
17621;DHT22;8929;51.008;6.804;2022-09-09T00:10:40;18.70;99.90
17621;DHT22;8929;51.008;6.804;2022-09-09T00:23:19;18.80;99.90
17621;DHT22;8929;51.008;6.804;2022-09-09T00:26:09;18.90;99.90
17621;DHT22;8929;51.008;6.804;2022-09-09T00:28:54;18.80;99.90
17621;DHT22;8929;51.008;6.804;2022-09-09T00:31:21;18.90;99.90
17621;DHT22;8929;51.008;6.804;2022-09-09T00:33:48;19.00;99.90
17621;DHT22;8929;51.008;6.804;2022-09-09T00:36:15;19.00;99.90
17621;DHT22;8929;51.008;6.804;2022-09-09T00:38:56;19.00;99.90
17621;DHT22;8929;51.008;6.804;2022-09-09T00:43:57;19.00;99.90
17621;DHT22;8929;51.008;6.804;2022-09-09T00:56:56;18.90;99.90
17621;DHT22;8929;51.008;6.804;2022-09-09T00:59:28;18.90;99.90
17621;DHT22;8929;51.008;6.804;2022-09-09T01:01:56;18.90;99.90
17621;DHT22;8929;51.008;6.804;2022-09-09T01:04:25;18.80;99.90
17621;DHT22;8929;51.008;6.804;2022-09-09T01:06:56;18.80;99.90
17621;DHT22;8929;51.008;6.804;2022-09-09T01:12:11;18.70;99.90
17621;DHT22;8929;51.008;6.804;2022-09-09T01:14:42;18.70;99.90
17621;DHT22;8929;51.008;6.804;2022-09-09T01:27:41;18.50;99.90
17621;DHT22;8929;51.008;6.804;2022-09-09T01:30:11;18.50;99.90
17621;DHT22;8929;51.008;6.804;2022-09-09T01:32:40;18.40;99.90
17621;DHT22;8929;51.008;6.804;2022-09-09T01:35:08;18.50;99.90
17621;DHT22;8929;51.008;6.804;2022-09-09T01:37:34;18.50;99.90
17621;DHT22;8929;51.008;6.804;2022-09-09T01:40:00;18.50;99.90
17621;DHT22;8929;51.008;6.804;2022-09-09T01:42:26;18.40;99.90
17621;DHT22;8929;51.008;6.804;2022-09-09T01:44:51;18.40;99.90
17621;DHT22;8929;51.008;6.804;2022-09-09T01:47:17;18.40;99.90
17621;DHT22;8929;51.008;6.804;2022-09-09T01:49:42;18.40;99.90
17621;DHT22;8929;51.008;6.804;2022-09-09T01:52:11;18.40;99.90
17621;DHT22;8929;51.008;6.804;2022-09-09T01:54:37;18.30;99.90
17621;DHT22;8929;51.008;6.804;2022-09-09T02:04:47;18.50;99.90
17621;DHT22;8929;51.008;6.804;2022-09-09T02:09:38;18.50;99.90
17621;DHT22;8929;51.008;6.804;2022-09-09T02:12:08;18.60;99.90
17621;DHT22;8929;51.008;6.804;2022-09-09T02:14:39;18.60;99.90
17621;DHT22;8929;51.008;6.804;2022-09-09T02:17:08;18.60;99.90
17621;DHT22;8929;51.008;6.804;2022-09-09T02:19:56;18.60;99.90
17621;DHT22;8929;51.008;6.804;2022-09-09T02:22:21;18.60;99.90
17621;DHT22;8929;51.008;6.804;2022-09-09T02:24:47;18.60;99.90
17621;DHT22;8929;51.008;6.804;2022-09-09T02:27:15;18.60;99.90
17621;DHT22;8929;51.008;6.804;2022-09-09T02:29:42;18.60;99.90
17621;DHT22;8929;51.008;6.804;2022-09-09T02:32:11;18.50;99.90
17621;DHT22;8929;51.008;6.804;2022-09-09T02:34:39;18.50;99.90
17621;DHT22;8929;51.008;6.804;2022-09-09T02:37:06;18.60;99.90
17621;DHT22;8929;51.008;6.804;2022-09-09T02:39:32;18.60;99.90
17621;DHT22;8929;51.008;6.804;2022-09-09T02:41:57;18.60;99.90
17621;DHT22;8929;51.008;6.804;2022-09-09T02:44:23;18.70;99.90
17621;DHT22;8929;51.008;6.804;2022-09-09T02:52:05;18.70;99.90
17621;DHT22;8929;51.008;6.804;2022-09-09T02:54:32;18.70;99.90
17621;DHT22;8929;51.008;6.804;2022-09-09T02:57:06;18.70;99.90
17621;DHT22;8929;51.008;6.804;2022-09-09T02:59:33;18.60;99.90
17621;DHT22;8929;51.008;6.804;2022-09-09T03:01:58;18.60;99.90
17621;DHT22;8929;51.008;6.804;2022-09-09T03:04:24;18.70;99.90
17621;DHT22;8929;51.008;6.804;2022-09-09T03:06:50;18.70;99.90
17621;DHT22;8929;51.008;6.804;2022-09-09T03:09:15;18.70;99.90
17621;DHT22;8929;51.008;6.804;2022-09-09T03:11:41;18.70;99.90
17621;DHT22;8929;51.008;6.804;2022-09-09T03:14:06;18.70;99.90
17621;DHT22;8929;51.008;6.804;2022-09-09T03:16:33;18.80;99.90
17621;DHT22;8929;51.008;6.804;2022-09-09T03:19:00;18.80;99.90
17621;DHT22;8929;51.008;6.804;2022-09-09T03:21:25;18.80;99.90
17621;DHT22;8929;51.008;6.804;2022-09-09T03:23:51;18.80;99.90
17621;DHT22;8929;51.008;6.804;2022-09-09T03:26:16;18.80;99.90
17621;DHT22;8929;51.008;6.804;2022-09-09T03:28:42;18.70;99.90
17621;DHT22;8929;51.008;6.804;2022-09-09T03:31:09;18.70;99.90
17621;DHT22;8929;51.008;6.804;2022-09-09T03:33:38;18.70;99.90
17621;DHT22;8929;51.008;6.804;2022-09-09T03:36:06;18.70;99.90
17621;DHT22;8929;51.008;6.804;2022-09-09T03:38:32;18.70;99.90
17621;DHT22;8929;51.008;6.804;2022-09-09T03:40:58;18.80;99.90
17621;DHT22;8929;51.008;6.804;2022-09-09T03:43:25;18.80;99.90
17621;DHT22;8929;51.008;6.804;2022-09-09T03:45:51;18.80;99.90
17621;DHT22;8929;51.008;6.804;2022-09-09T03:48:18;18.80;99.90
17621;DHT22;8929;51.008;6.804;2022-09-09T03:50:44;18.80;99.90
17621;DHT22;8929;51.008;6.804;2022-09-09T03:53:10;18.80;99.90
17621;DHT22;8929;51.008;6.804;2022-09-09T03:55:36;18.90;99.90
17621;DHT22;8929;51.008;6.804;2022-09-09T03:58:01;18.90;99.90
17621;DHT22;8929;51.008;6.804;2022-09-09T04:00:27;18.90;99.90
17621;DHT22;8929;51.008;6.804;2022-09-09T04:02:53;19.00;99.90
17621;DHT22;8929;51.008;6.804;2022-09-09T04:05:19;19.00;99.90
17621;DHT22;8929;51.008;6.804;2022-09-09T04:07:45;19.00;99.90
17621;DHT22;8929;51.008;6.804;2022-09-09T04:10:10;19.00;99.90
17621;DHT22;8929;51.008;6.804;2022-09-09T04:12:36;19.00;99.90
17621;DHT22;8929;51.008;6.804;2022-09-09T04:15:02;19.00;99.90
17621;DHT22;8929;51.008;6.804;2022-09-09T04:17:27;19.00;99.90
17621;DHT22;8929;51.008;6.804;2022-09-09T04:19:53;19.00;99.90
17621;DHT22;8929;51.008;6.804;2022-09-09T04:22:18;19.00;99.90
17621;DHT22;8929;51.008;6.804;2022-09-09T04:24:44;19.00;99.90
17621;DHT22;8929;51.008;6.804;2022-09-09T04:27:09;19.00;99.90
17621;DHT22;8929;51.008;6.804;2022-09-09T04:29:35;19.00;99.90
17621;DHT22;8929;51.008;6.804;2022-09-09T04:32:00;19.10;99.90
17621;DHT22;8929;51.008;6.804;2022-09-09T04:34:26;19.10;99.90
17621;DHT22;8929;51.008;6.804;2022-09-09T04:36:52;19.10;99.90
17621;DHT22;8929;51.008;6.804;2022-09-09T04:39:17;19.20;99.90
17621;DHT22;8929;51.008;6.804;2022-09-09T04:41:43;19.20;99.90
17621;DHT22;8929;51.008;6.804;2022-09-09T04:44:08;19.20;99.90
17621;DHT22;8929;51.008;6.804;2022-09-09T04:46:35;19.20;99.90
17621;DHT22;8929;51.008;6.804;2022-09-09T04:49:00;19.10;99.90
17621;DHT22;8929;51.008;6.804;2022-09-09T04:51:26;19.20;99.90
17621;DHT22;8929;51.008;6.804;2022-09-09T04:53:52;19.20;99.90
17621;DHT22;8929;51.008;6.804;2022-09-09T04:56:19;19.20;99.90
17621;DHT22;8929;51.008;6.804;2022-09-09T04:58:45;19.10;99.90
17621;DHT22;8929;51.008;6.804;2022-09-09T05:01:14;19.20;99.90
17621;DHT22;8929;51.008;6.804;2022-09-09T05:03:39;19.20;99.90
17621;DHT22;8929;51.008;6.804;2022-09-09T05:06:09;19.20;99.90
17621;DHT22;8929;51.008;6.804;2022-09-09T05:08:39;19.20;99.90
17621;DHT22;8929;51.008;6.804;2022-09-09T05:13:43;19.10;99.90
17621;DHT22;8929;51.008;6.804;2022-09-09T05:16:09;19.00;99.90
17621;DHT22;8929;51.008;6.804;2022-09-09T05:18:37;19.00;99.90
17621;DHT22;8929;51.008;6.804;2022-09-09T05:21:02;19.00;99.90
17621;DHT22;8929;51.008;6.804;2022-09-09T05:23:28;19.00;99.90
17621;DHT22;8929;51.008;6.804;2022-09-09T05:25:56;19.00;99.90
17621;DHT22;8929;51.008;6.804;2022-09-09T05:28:23;19.00;99.90
17621;DHT22;8929;51.008;6.804;2022-09-09T05:30:56;19.10;99.90
17621;DHT22;8929;51.008;6.804;2022-09-09T05:33:22;19.10;99.90
17621;DHT22;8929;51.008;6.804;2022-09-09T05:35:54;19.10;99.90
17621;DHT22;8929;51.008;6.804;2022-09-09T05:38:21;19.10;99.90
17621;DHT22;8929;51.008;6.804;2022-09-09T05:40:49;19.10;99.90
17621;DHT22;8929;51.008;6.804;2022-09-09T05:43:15;19.20;99.90
17621;DHT22;8929;51.008;6.804;2022-09-09T05:45:40;19.20;99.90
17621;DHT22;8929;51.008;6.804;2022-09-09T05:48:06;19.20;99.90
17621;DHT22;8929;51.008;6.804;2022-09-09T05:50:33;19.20;99.90
17621;DHT22;8929;51.008;6.804;2022-09-09T05:52:58;19.20;99.90
17621;DHT22;8929;51.008;6.804;2022-09-09T05:55:24;19.20;99.90
17621;DHT22;8929;51.008;6.804;2022-09-09T05:57:50;19.30;99.90
17621;DHT22;8929;51.008;6.804;2022-09-09T06:00:17;19.30;99.90
17621;DHT22;8929;51.008;6.804;2022-09-09T06:02:43;19.30;99.90
17621;DHT22;8929;51.008;6.804;2022-09-09T06:05:09;19.30;99.90
17621;DHT22;8929;51.008;6.804;2022-09-09T06:07:35;19.40;99.90
17621;DHT22;8929;51.008;6.804;2022-09-09T06:10:01;19.40;99.90
17621;DHT22;8929;51.008;6.804;2022-09-09T06:12:27;19.50;99.90
17621;DHT22;8929;51.008;6.804;2022-09-09T06:14:52;19.50;99.90
17621;DHT22;8929;51.008;6.804;2022-09-09T06:17:18;19.50;99.90
17621;DHT22;8929;51.008;6.804;2022-09-09T06:19:43;19.50;99.90
17621;DHT22;8929;51.008;6.804;2022-09-09T06:22:09;19.50;99.90
17621;DHT22;8929;51.008;6.804;2022-09-09T06:24:37;19.50;99.90
17621;DHT22;8929;51.008;6.804;2022-09-09T06:27:03;19.50;99.90
17621;DHT22;8929;51.008;6.804;2022-09-09T06:29:28;19.50;99.90
17621;DHT22;8929;51.008;6.804;2022-09-09T06:31:54;19.50;99.90
17621;DHT22;8929;51.008;6.804;2022-09-09T06:34:19;19.60;99.90
17621;DHT22;8929;51.008;6.804;2022-09-09T06:36:46;19.60;99.90
17621;DHT22;8929;51.008;6.804;2022-09-09T06:39:11;19.60;99.90
17621;DHT22;8929;51.008;6.804;2022-09-09T06:41:37;19.70;99.90
17621;DHT22;8929;51.008;6.804;2022-09-09T06:44:03;19.70;99.90
17621;DHT22;8929;51.008;6.804;2022-09-09T06:46:30;19.70;99.90
17621;DHT22;8929;51.008;6.804;2022-09-09T06:48:57;19.80;99.90
17621;DHT22;8929;51.008;6.804;2022-09-09T06:51:25;19.80;99.90
17621;DHT22;8929;51.008;6.804;2022-09-09T06:53:51;19.90;99.90
17621;DHT22;8929;51.008;6.804;2022-09-09T06:58:43;20.00;99.90
17621;DHT22;8929;51.008;6.804;2022-09-09T07:01:18;20.00;99.90
17621;DHT22;8929;51.008;6.804;2022-09-09T07:03:46;20.20;99.90
17621;DHT22;8929;51.008;6.804;2022-09-09T07:06:13;20.50;99.90
17621;DHT22;8929;51.008;6.804;2022-09-09T07:08:40;20.70;99.90
17621;DHT22;8929;51.008;6.804;2022-09-09T07:11:06;20.90;99.90
17621;DHT22;8929;51.008;6.804;2022-09-09T07:13:32;20.90;99.90
17621;DHT22;8929;51.008;6.804;2022-09-09T07:16:08;21.00;99.90
17621;DHT22;8929;51.008;6.804;2022-09-09T07:18:34;21.10;99.90
17621;DHT22;8929;51.008;6.804;2022-09-09T07:21:00;21.00;99.90
17621;DHT22;8929;51.008;6.804;2022-09-09T07:23:27;20.80;99.90
17621;DHT22;8929;51.008;6.804;2022-09-09T07:25:53;20.80;99.90
17621;DHT22;8929;51.008;6.804;2022-09-09T07:28:19;20.80;99.90
17621;DHT22;8929;51.008;6.804;2022-09-09T07:30:52;20.90;99.90
17621;DHT22;8929;51.008;6.804;2022-09-09T07:33:18;21.10;99.90
17621;DHT22;8929;51.008;6.804;2022-09-09T07:35:45;21.20;99.90
17621;DHT22;8929;51.008;6.804;2022-09-09T07:38:11;21.20;99.90
17621;DHT22;8929;51.008;6.804;2022-09-09T07:40:36;21.40;99.90
17621;DHT22;8929;51.008;6.804;2022-09-09T07:43:02;21.50;99.90
17621;DHT22;8929;51.008;6.804;2022-09-09T07:45:28;21.50;99.90
17621;DHT22;8929;51.008;6.804;2022-09-09T07:47:54;21.50;99.90
17621;DHT22;8929;51.008;6.804;2022-09-09T07:50:20;21.40;99.90
17621;DHT22;8929;51.008;6.804;2022-09-09T07:52:46;21.40;99.90
17621;DHT22;8929;51.008;6.804;2022-09-09T07:55:11;21.30;99.90
17621;DHT22;8929;51.008;6.804;2022-09-09T07:57:37;21.30;99.90
17621;DHT22;8929;51.008;6.804;2022-09-09T08:00:03;21.20;99.90
17621;DHT22;8929;51.008;6.804;2022-09-09T08:02:29;21.20;99.90
17621;DHT22;8929;51.008;6.804;2022-09-09T08:04:55;21.20;99.90
17621;DHT22;8929;51.008;6.804;2022-09-09T08:07:20;21.20;99.90
17621;DHT22;8929;51.008;6.804;2022-09-09T08:09:46;21.20;99.90
17621;DHT22;8929;51.008;6.804;2022-09-09T08:12:12;21.30;99.90
17621;DHT22;8929;51.008;6.804;2022-09-09T08:14:38;21.50;99.90
17621;DHT22;8929;51.008;6.804;2022-09-09T08:17:05;21.60;99.90
17621;DHT22;8929;51.008;6.804;2022-09-09T08:19:30;21.50;99.90
17621;DHT22;8929;51.008;6.804;2022-09-09T08:21:59;21.60;99.90
17621;DHT22;8929;51.008;6.804;2022-09-09T08:24:24;21.70;99.90
17621;DHT22;8929;51.008;6.804;2022-09-09T08:26:50;21.60;99.90
17621;DHT22;8929;51.008;6.804;2022-09-09T08:29:16;21.60;99.90
17621;DHT22;8929;51.008;6.804;2022-09-09T08:34:10;21.70;99.90
17621;DHT22;8929;51.008;6.804;2022-09-09T08:36:37;21.70;99.90
17621;DHT22;8929;51.008;6.804;2022-09-09T08:39:03;21.70;99.90
17621;DHT22;8929;51.008;6.804;2022-09-09T08:44:09;21.80;99.90
17621;DHT22;8929;51.008;6.804;2022-09-09T08:51:48;22.30;99.90
17621;DHT22;8929;51.008;6.804;2022-09-09T08:54:15;22.40;99.90
17621;DHT22;8929;51.008;6.804;2022-09-09T08:56:40;22.40;99.90
17621;DHT22;8929;51.008;6.804;2022-09-09T08:59:07;22.40;99.90
17621;DHT22;8929;51.008;6.804;2022-09-09T09:01:38;22.30;99.90
17621;DHT22;8929;51.008;6.804;2022-09-09T09:06:48;22.10;99.90
17621;DHT22;8929;51.008;6.804;2022-09-09T09:09:28;22.20;99.90
17621;DHT22;8929;51.008;6.804;2022-09-09T09:11:59;22.10;99.90
17621;DHT22;8929;51.008;6.804;2022-09-09T09:14:26;22.00;99.90
17621;DHT22;8929;51.008;6.804;2022-09-09T09:19:29;21.70;99.90
17621;DHT22;8929;51.008;6.804;2022-09-09T09:27:14;21.60;99.90
17621;DHT22;8929;51.008;6.804;2022-09-09T09:29:40;21.70;99.90
17621;DHT22;8929;51.008;6.804;2022-09-09T09:32:07;21.70;99.90
17621;DHT22;8929;51.008;6.804;2022-09-09T09:34:37;21.60;99.90
17621;DHT22;8929;51.008;6.804;2022-09-09T09:37:07;21.70;99.90
17621;DHT22;8929;51.008;6.804;2022-09-09T09:39:37;21.90;99.90
17621;DHT22;8929;51.008;6.804;2022-09-09T09:42:15;22.10;99.90
17621;DHT22;8929;51.008;6.804;2022-09-09T09:44:42;22.20;99.90
17621;DHT22;8929;51.008;6.804;2022-09-09T09:47:10;22.50;99.90
17621;DHT22;8929;51.008;6.804;2022-09-09T09:49:36;22.40;99.90
17621;DHT22;8929;51.008;6.804;2022-09-09T09:52:02;22.60;99.90
17621;DHT22;8929;51.008;6.804;2022-09-09T09:54:29;22.70;99.90
17621;DHT22;8929;51.008;6.804;2022-09-09T09:56:55;23.40;99.90
17621;DHT22;8929;51.008;6.804;2022-09-09T09:59:22;23.90;99.90
17621;DHT22;8929;51.008;6.804;2022-09-09T10:01:48;23.80;99.90
17621;DHT22;8929;51.008;6.804;2022-09-09T10:04:18;23.50;99.90
17621;DHT22;8929;51.008;6.804;2022-09-09T10:06:45;23.00;99.90
17621;DHT22;8929;51.008;6.804;2022-09-09T10:09:21;23.00;99.90
17621;DHT22;8929;51.008;6.804;2022-09-09T10:11:51;23.30;99.90
17621;DHT22;8929;51.008;6.804;2022-09-09T10:14:24;23.60;99.90
17621;DHT22;8929;51.008;6.804;2022-09-09T10:22:02;24.30;99.90
17621;DHT22;8929;51.008;6.804;2022-09-09T10:37:06;24.70;99.90
17621;DHT22;8929;51.008;6.804;2022-09-09T10:39:37;24.80;99.90
17621;DHT22;8929;51.008;6.804;2022-09-09T10:42:06;24.80;99.90
17621;DHT22;8929;51.008;6.804;2022-09-09T10:45:17;24.80;99.90
17621;DHT22;8929;51.008;6.804;2022-09-09T10:47:33;25.00;99.90
17621;DHT22;8929;51.008;6.804;2022-09-09T10:55:23;24.60;99.90
17621;DHT22;8929;51.008;6.804;2022-09-09T10:57:52;24.40;99.90
17621;DHT22;8929;51.008;6.804;2022-09-09T11:02:53;24.40;99.90
17621;DHT22;8929;51.008;6.804;2022-09-09T11:07:51;23.90;99.90
17621;DHT22;8929;51.008;6.804;2022-09-09T11:10:28;23.60;99.90
17621;DHT22;8929;51.008;6.804;2022-09-09T11:12:57;23.20;99.90
17621;DHT22;8929;51.008;6.804;2022-09-09T11:15:46;22.90;99.90
17621;DHT22;8929;51.008;6.804;2022-09-09T11:18:11;22.70;99.90
17621;DHT22;8929;51.008;6.804;2022-09-09T11:20:39;22.60;99.90
17621;DHT22;8929;51.008;6.804;2022-09-09T11:23:07;22.50;99.90
17621;DHT22;8929;51.008;6.804;2022-09-09T11:25:35;22.50;99.90
17621;DHT22;8929;51.008;6.804;2022-09-09T11:31:19;23.00;99.90
17621;DHT22;8929;51.008;6.804;2022-09-09T11:36:10;23.10;99.90
17621;DHT22;8929;51.008;6.804;2022-09-09T11:38:45;23.10;99.90
17621;DHT22;8929;51.008;6.804;2022-09-09T11:41:16;23.10;99.90
17621;DHT22;8929;51.008;6.804;2022-09-09T11:43:44;23.10;99.90
17621;DHT22;8929;51.008;6.804;2022-09-09T11:46:12;22.90;99.90
17621;DHT22;8929;51.008;6.804;2022-09-09T11:53:30;22.30;99.90
17621;DHT22;8929;51.008;6.804;2022-09-09T11:56:07;22.40;99.90
17621;DHT22;8929;51.008;6.804;2022-09-09T11:58:38;22.40;99.90
17621;DHT22;8929;51.008;6.804;2022-09-09T12:01:15;22.30;99.90
17621;DHT22;8929;51.008;6.804;2022-09-09T12:03:45;21.90;99.90
17621;DHT22;8929;51.008;6.804;2022-09-09T12:06:17;21.60;99.90
17621;DHT22;8929;51.008;6.804;2022-09-09T12:08:45;21.40;99.90
17621;DHT22;8929;51.008;6.804;2022-09-09T12:11:11;21.30;99.90
17621;DHT22;8929;51.008;6.804;2022-09-09T12:13:37;21.40;99.90
17621;DHT22;8929;51.008;6.804;2022-09-09T12:16:03;21.30;99.90
17621;DHT22;8929;51.008;6.804;2022-09-09T12:18:34;21.20;99.90
17621;DHT22;8929;51.008;6.804;2022-09-09T12:23:45;20.60;99.90
17621;DHT22;8929;51.008;6.804;2022-09-09T12:33:50;20.60;99.90
17621;DHT22;8929;51.008;6.804;2022-09-09T12:36:18;20.60;99.90
17621;DHT22;8929;51.008;6.804;2022-09-09T12:38:45;20.50;99.90
17621;DHT22;8929;51.008;6.804;2022-09-09T12:41:21;20.20;99.90
17621;DHT22;8929;51.008;6.804;2022-09-09T12:43:47;19.60;99.90
17621;DHT22;8929;51.008;6.804;2022-09-09T12:46:35;18.80;99.90
17621;DHT22;8929;51.008;6.804;2022-09-09T12:48:58;18.50;99.90
17621;DHT22;8929;51.008;6.804;2022-09-09T12:53:50;19.10;99.90
17621;DHT22;8929;51.008;6.804;2022-09-09T12:56:22;19.60;99.90
17621;DHT22;8929;51.008;6.804;2022-09-09T12:58:49;19.90;99.90
17621;DHT22;8929;51.008;6.804;2022-09-09T13:04:26;20.80;99.90
17621;DHT22;8929;51.008;6.804;2022-09-09T13:06:52;20.90;99.90
17621;DHT22;8929;51.008;6.804;2022-09-09T13:09:18;21.10;99.90
17621;DHT22;8929;51.008;6.804;2022-09-09T13:11:48;21.40;99.90
17621;DHT22;8929;51.008;6.804;2022-09-09T13:14:19;21.80;99.90
17621;DHT22;8929;51.008;6.804;2022-09-09T13:16:59;22.10;99.90
17621;DHT22;8929;51.008;6.804;2022-09-09T13:19:25;22.20;99.90
17621;DHT22;8929;51.008;6.804;2022-09-09T13:21:57;22.30;99.90
17621;DHT22;8929;51.008;6.804;2022-09-09T13:24:30;22.30;99.90
17621;DHT22;8929;51.008;6.804;2022-09-09T13:26:57;22.20;99.90
17621;DHT22;8929;51.008;6.804;2022-09-09T13:29:23;22.30;99.90
17621;DHT22;8929;51.008;6.804;2022-09-09T13:31:49;22.30;99.90
17621;DHT22;8929;51.008;6.804;2022-09-09T13:36:52;22.20;99.90
17621;DHT22;8929;51.008;6.804;2022-09-09T13:39:20;22.10;99.90
17621;DHT22;8929;51.008;6.804;2022-09-09T13:41:45;22.10;99.90
17621;DHT22;8929;51.008;6.804;2022-09-09T13:44:25;21.80;99.90
17621;DHT22;8929;51.008;6.804;2022-09-09T13:49:27;22.10;99.90
17621;DHT22;8929;51.008;6.804;2022-09-09T13:52:03;22.10;99.90
17621;DHT22;8929;51.008;6.804;2022-09-09T13:54:29;22.00;99.90
17621;DHT22;8929;51.008;6.804;2022-09-09T13:56:56;21.90;99.90
17621;DHT22;8929;51.008;6.804;2022-09-09T13:59:21;21.80;99.90
17621;DHT22;8929;51.008;6.804;2022-09-09T14:01:47;21.70;99.90
17621;DHT22;8929;51.008;6.804;2022-09-09T14:04:14;21.70;99.90
17621;DHT22;8929;51.008;6.804;2022-09-09T14:06:41;21.70;99.90
17621;DHT22;8929;51.008;6.804;2022-09-09T14:09:07;21.60;99.90
17621;DHT22;8929;51.008;6.804;2022-09-09T14:11:34;21.70;99.90
17621;DHT22;8929;51.008;6.804;2022-09-09T14:14:00;21.80;99.90
17621;DHT22;8929;51.008;6.804;2022-09-09T14:16:29;21.80;99.90
17621;DHT22;8929;51.008;6.804;2022-09-09T14:18:55;21.70;99.90
17621;DHT22;8929;51.008;6.804;2022-09-09T14:21:22;21.40;99.90
17621;DHT22;8929;51.008;6.804;2022-09-09T14:23:47;20.70;99.90
17621;DHT22;8929;51.008;6.804;2022-09-09T14:26:13;20.10;99.90
17621;DHT22;8929;51.008;6.804;2022-09-09T14:28:39;19.70;99.90
17621;DHT22;8929;51.008;6.804;2022-09-09T14:31:06;19.30;99.90
17621;DHT22;8929;51.008;6.804;2022-09-09T14:33:31;19.10;99.90
17621;DHT22;8929;51.008;6.804;2022-09-09T14:35:57;19.00;99.90
17621;DHT22;8929;51.008;6.804;2022-09-09T14:38:24;19.10;99.90
17621;DHT22;8929;51.008;6.804;2022-09-09T14:40:50;19.20;99.90
17621;DHT22;8929;51.008;6.804;2022-09-09T14:43:16;19.40;99.90
17621;DHT22;8929;51.008;6.804;2022-09-09T14:45:41;20.10;99.90
17621;DHT22;8929;51.008;6.804;2022-09-09T14:48:08;20.50;99.90
17621;DHT22;8929;51.008;6.804;2022-09-09T14:50:34;20.70;99.90
17621;DHT22;8929;51.008;6.804;2022-09-09T14:53:02;20.70;99.90
17621;DHT22;8929;51.008;6.804;2022-09-09T14:55:27;20.50;99.90
17621;DHT22;8929;51.008;6.804;2022-09-09T14:57:54;20.20;99.90
17621;DHT22;8929;51.008;6.804;2022-09-09T15:00:20;20.20;99.90
17621;DHT22;8929;51.008;6.804;2022-09-09T15:02:45;20.10;99.90
17621;DHT22;8929;51.008;6.804;2022-09-09T15:05:11;20.10;99.90
17621;DHT22;8929;51.008;6.804;2022-09-09T15:07:36;20.20;99.90
17621;DHT22;8929;51.008;6.804;2022-09-09T15:10:03;20.50;99.90
17621;DHT22;8929;51.008;6.804;2022-09-09T15:12:29;21.10;99.90
17621;DHT22;8929;51.008;6.804;2022-09-09T15:14:55;22.00;99.90
17621;DHT22;8929;51.008;6.804;2022-09-09T15:17:21;22.30;99.90
17621;DHT22;8929;51.008;6.804;2022-09-09T15:19:46;22.00;99.90
17621;DHT22;8929;51.008;6.804;2022-09-09T15:22:12;21.50;99.90
17621;DHT22;8929;51.008;6.804;2022-09-09T15:24:37;21.10;99.90
17621;DHT22;8929;51.008;6.804;2022-09-09T15:27:03;20.90;99.90
17621;DHT22;8929;51.008;6.804;2022-09-09T15:29:29;21.00;99.90
17621;DHT22;8929;51.008;6.804;2022-09-09T15:31:55;21.40;99.90
17621;DHT22;8929;51.008;6.804;2022-09-09T15:34:20;22.60;99.90
17621;DHT22;8929;51.008;6.804;2022-09-09T15:36:46;23.00;99.90
17621;DHT22;8929;51.008;6.804;2022-09-09T15:39:12;23.20;99.90
17621;DHT22;8929;51.008;6.804;2022-09-09T15:41:41;23.20;99.90
17621;DHT22;8929;51.008;6.804;2022-09-09T15:44:07;22.80;99.90
17621;DHT22;8929;51.008;6.804;2022-09-09T15:46:33;22.60;99.90
17621;DHT22;8929;51.008;6.804;2022-09-09T15:51:29;22.10;99.90
17621;DHT22;8929;51.008;6.804;2022-09-09T15:53:55;22.00;99.90
17621;DHT22;8929;51.008;6.804;2022-09-09T15:56:22;21.90;99.90
17621;DHT22;8929;51.008;6.804;2022-09-09T15:58:47;21.70;99.90
17621;DHT22;8929;51.008;6.804;2022-09-09T16:01:13;21.50;99.90
17621;DHT22;8929;51.008;6.804;2022-09-09T16:03:42;21.50;99.90
17621;DHT22;8929;51.008;6.804;2022-09-09T16:06:08;21.40;99.90
17621;DHT22;8929;51.008;6.804;2022-09-09T16:08:38;21.10;99.90
17621;DHT22;8929;51.008;6.804;2022-09-09T16:11:07;20.90;99.90
17621;DHT22;8929;51.008;6.804;2022-09-09T16:13:38;20.60;99.90
17621;DHT22;8929;51.008;6.804;2022-09-09T16:16:04;20.40;99.90
17621;DHT22;8929;51.008;6.804;2022-09-09T16:18:34;20.30;99.90
17621;DHT22;8929;51.008;6.804;2022-09-09T16:21:00;20.10;99.90
17621;DHT22;8929;51.008;6.804;2022-09-09T16:23:26;19.90;99.90
17621;DHT22;8929;51.008;6.804;2022-09-09T16:25:55;20.00;99.90
17621;DHT22;8929;51.008;6.804;2022-09-09T16:28:21;19.90;99.90
17621;DHT22;8929;51.008;6.804;2022-09-09T16:30:47;19.90;99.90
17621;DHT22;8929;51.008;6.804;2022-09-09T16:33:13;19.90;99.90
17621;DHT22;8929;51.008;6.804;2022-09-09T16:35:41;20.00;99.90
17621;DHT22;8929;51.008;6.804;2022-09-09T16:38:07;19.90;99.90
17621;DHT22;8929;51.008;6.804;2022-09-09T16:40:36;19.80;99.90
17621;DHT22;8929;51.008;6.804;2022-09-09T16:43:05;19.80;99.90
17621;DHT22;8929;51.008;6.804;2022-09-09T16:45:41;19.90;99.90
17621;DHT22;8929;51.008;6.804;2022-09-09T16:48:06;20.00;99.90
17621;DHT22;8929;51.008;6.804;2022-09-09T16:50:32;20.00;99.90
17621;DHT22;8929;51.008;6.804;2022-09-09T16:52:57;20.00;99.90
17621;DHT22;8929;51.008;6.804;2022-09-09T16:55:23;20.00;99.90
17621;DHT22;8929;51.008;6.804;2022-09-09T16:57:49;20.00;99.90
17621;DHT22;8929;51.008;6.804;2022-09-09T17:00:15;20.00;99.90
17621;DHT22;8929;51.008;6.804;2022-09-09T17:02:42;20.00;99.90
17621;DHT22;8929;51.008;6.804;2022-09-09T17:05:08;20.10;99.90
17621;DHT22;8929;51.008;6.804;2022-09-09T17:07:34;20.10;99.90
17621;DHT22;8929;51.008;6.804;2022-09-09T17:10:01;20.10;99.90
17621;DHT22;8929;51.008;6.804;2022-09-09T17:12:26;20.10;99.90
17621;DHT22;8929;51.008;6.804;2022-09-09T17:14:52;20.20;99.90
17621;DHT22;8929;51.008;6.804;2022-09-09T17:17:17;20.20;99.90
17621;DHT22;8929;51.008;6.804;2022-09-09T17:19:43;20.20;99.90
17621;DHT22;8929;51.008;6.804;2022-09-09T17:22:08;20.10;99.90
17621;DHT22;8929;51.008;6.804;2022-09-09T17:24:34;20.10;99.90
17621;DHT22;8929;51.008;6.804;2022-09-09T17:27:00;20.10;99.90
17621;DHT22;8929;51.008;6.804;2022-09-09T17:29:27;20.10;99.90
17621;DHT22;8929;51.008;6.804;2022-09-09T17:31:53;20.00;99.90
17621;DHT22;8929;51.008;6.804;2022-09-09T17:34:18;20.00;99.90
17621;DHT22;8929;51.008;6.804;2022-09-09T17:36:44;20.00;99.90
17621;DHT22;8929;51.008;6.804;2022-09-09T17:39:10;20.00;99.90
17621;DHT22;8929;51.008;6.804;2022-09-09T17:41:36;19.90;99.90
17621;DHT22;8929;51.008;6.804;2022-09-09T17:44:06;19.80;99.90
17621;DHT22;8929;51.008;6.804;2022-09-09T17:46:33;19.80;99.90
17621;DHT22;8929;51.008;6.804;2022-09-09T17:49:01;19.70;99.90
17621;DHT22;8929;51.008;6.804;2022-09-09T17:51:28;19.70;99.90
17621;DHT22;8929;51.008;6.804;2022-09-09T17:53:56;19.60;99.90
17621;DHT22;8929;51.008;6.804;2022-09-09T17:56:23;19.60;99.90
17621;DHT22;8929;51.008;6.804;2022-09-09T17:58:50;19.50;99.90
17621;DHT22;8929;51.008;6.804;2022-09-09T18:01:20;19.40;99.90
17621;DHT22;8929;51.008;6.804;2022-09-09T18:03:46;19.40;99.90
17621;DHT22;8929;51.008;6.804;2022-09-09T18:06:13;19.40;99.90
17621;DHT22;8929;51.008;6.804;2022-09-09T18:08:40;19.40;99.90